sensor_id;sensor_type;location;lat;lon;timestamp;pressure;altitude;pressure_sealevel;temperature;humidity
68525;BME280;55524;51.380;13.372;2023-02-22T00:00:42;100688.19;;;7.71;100.00
68525;BME280;55524;51.380;13.372;2023-02-22T00:03:22;100679.66;;;7.60;100.00
68525;BME280;55524;51.380;13.372;2023-02-22T00:05:58;100676.31;;;7.53;100.00
68525;BME280;55524;51.380;13.372;2023-02-22T00:08:26;100678.09;;;7.51;100.00
68525;BME280;55524;51.380;13.372;2023-02-22T00:11:05;100673.78;;;7.49;100.00
68525;BME280;55524;51.380;13.372;2023-02-22T00:13:34;100674.69;;;7.46;100.00
68525;BME280;55524;51.380;13.372;2023-02-22T00:16:01;100665.09;;;7.44;100.00
68525;BME280;55524;51.380;13.372;2023-02-22T00:18:28;100670.34;;;7.44;100.00
68525;BME280;55524;51.380;13.372;2023-02-22T00:20:59;100665.16;;;7.42;100.00
68525;BME280;55524;51.380;13.372;2023-02-22T00:23:27;100660.78;;;7.41;100.00
68525;BME280;55524;51.380;13.372;2023-02-22T00:25:55;100661.66;;;7.42;100.00
68525;BME280;55524;51.380;13.372;2023-02-22T00:28:22;100665.16;;;7.42;100.00
68525;BME280;55524;51.380;13.372;2023-02-22T00:30:51;100669.53;;;7.42;100.00
68525;BME280;55524;51.380;13.372;2023-02-22T00:33:19;100667.78;;;7.42;100.00
68525;BME280;55524;51.380;13.372;2023-02-22T00:35:45;100666.00;;;7.43;100.00
68525;BME280;55524;51.380;13.372;2023-02-22T00:38:14;100666.88;;;7.43;100.00
68525;BME280;55524;51.380;13.372;2023-02-22T00:40:41;100666.00;;;7.43;100.00
68525;BME280;55524;51.380;13.372;2023-02-22T00:43:07;100669.53;;;7.42;100.00
68525;BME280;55524;51.380;13.372;2023-02-22T00:45:34;100671.31;;;7.39;100.00
68525;BME280;55524;51.380;13.372;2023-02-22T00:48:02;100673.13;;;7.37;100.00
68525;BME280;55524;51.380;13.372;2023-02-22T00:50:30;100669.66;;;7.37;100.00
68525;BME280;55524;51.380;13.372;2023-02-22T00:52:58;100666.16;;;7.35;100.00
68525;BME280;55524;51.380;13.372;2023-02-22T00:55:30;100667.94;;;7.34;100.00
68525;BME280;55524;51.380;13.372;2023-02-22T00:57:57;100660.94;;;7.33;100.00
68525;BME280;55524;51.380;13.372;2023-02-22T01:00:38;100671.41;;;7.35;100.00
68525;BME280;55524;51.380;13.372;2023-02-22T01:03:08;100659.13;;;7.37;100.00
68525;BME280;55524;51.380;13.372;2023-02-22T01:05:35;100662.63;;;7.37;100.00
68525;BME280;55524;51.380;13.372;2023-02-22T01:08:05;100660.78;;;7.41;100.00
68525;BME280;55524;51.380;13.372;2023-02-22T01:10:32;100665.09;;;7.44;100.00
68525;BME280;55524;51.380;13.372;2023-02-22T01:12:59;100659.78;;;7.47;100.00
68525;BME280;55524;51.380;13.372;2023-02-22T01:15:28;100665.91;;;7.47;100.00
68525;BME280;55524;51.380;13.372;2023-02-22T01:17:56;100657.97;;;7.50;100.00
68525;BME280;55524;51.380;13.372;2023-02-22T01:20:24;100656.19;;;7.52;100.00
68525;BME280;55524;51.380;13.372;2023-02-22T01:22:52;100656.13;;;7.54;100.00
68525;BME280;55524;51.380;13.372;2023-02-22T01:25:22;100651.72;;;7.54;100.00
68525;BME280;55524;51.380;13.372;2023-02-22T01:27:49;100655.22;;;7.56;100.00
68525;BME280;55524;51.380;13.372;2023-02-22T01:30:20;100649.91;;;7.58;100.00
68525;BME280;55524;51.380;13.372;2023-02-22T01:32:47;100645.56;;;7.55;100.00
68525;BME280;55524;51.380;13.372;2023-02-22T01:35:17;100640.34;;;7.54;100.00
68525;BME280;55524;51.380;13.372;2023-02-22T01:37:44;100642.94;;;7.55;100.00
68525;BME280;55524;51.380;13.372;2023-02-22T01:40:20;100640.31;;;7.55;100.00
68525;BME280;55524;51.380;13.372;2023-02-22T01:42:57;100644.75;;;7.53;100.00
68525;BME280;55524;51.380;13.372;2023-02-22T01:50:29;100644.00;;;7.47;100.00
68525;BME280;55524;51.380;13.372;2023-02-22T01:52:58;100644.16;;;7.39;100.00
68525;BME280;55524;51.380;13.372;2023-02-22T01:55:25;100652.97;;;7.38;100.00
68525;BME280;55524;51.380;13.372;2023-02-22T01:57:51;100653.88;;;7.35;100.00
68525;BME280;55524;51.380;13.372;2023-02-22T02:00:19;100651.28;;;7.34;100.00
68525;BME280;55524;51.380;13.372;2023-02-22T02:03:00;100652.22;;;7.31;100.00
68525;BME280;55524;51.380;13.372;2023-02-22T02:05:28;100653.16;;;7.29;100.00
68525;BME280;55524;51.380;13.372;2023-02-22T02:07:58;100642.66;;;7.27;100.00
68525;BME280;55524;51.380;13.372;2023-02-22T02:10:28;100647.97;;;7.26;100.00
68525;BME280;55524;51.380;13.372;2023-02-22T02:12:57;100647.97;;;7.24;100.00
68525;BME280;55524;51.380;13.372;2023-02-22T02:15:28;100639.28;;;7.22;100.00
68525;BME280;55524;51.380;13.372;2023-02-22T02:17:57;100648.88;;;7.23;100.00
68525;BME280;55524;51.380;13.372;2023-02-22T02:20:57;100643.59;;;7.25;100.00
68525;BME280;55524;51.380;13.372;2023-02-22T02:33:13;100638.69;;;7.48;100.00
68525;BME280;55524;51.380;13.372;2023-02-22T02:35:54;100636.06;;;7.50;100.00
68525;BME280;55524;51.380;13.372;2023-02-22T02:41:33;100634.28;;;7.50;100.00
68525;BME280;55524;51.380;13.372;2023-02-22T02:44:10;100628.13;;;7.53;100.00
68525;BME280;55524;51.380;13.372;2023-02-22T02:47:04;100630.75;;;7.53;100.00
68525;BME280;55524;51.380;13.372;2023-02-22T02:49:56;100630.75;;;7.53;100.00
68525;BME280;55524;51.380;13.372;2023-02-22T02:52:24;100620.22;;;7.53;100.00
68525;BME280;55524;51.380;13.372;2023-02-22T02:54:53;100624.56;;;7.54;100.00
68525;BME280;55524;51.380;13.372;2023-02-22T02:57:20;100623.72;;;7.53;100.00
68525;BME280;55524;51.380;13.372;2023-02-22T02:59:46;100623.66;;;7.55;100.00
68525;BME280;55524;51.380;13.372;2023-02-22T03:02:37;100621.84;;;7.58;100.00
68525;BME280;55524;51.380;13.372;2023-02-22T03:08:23;100620.25;;;7.51;100.00
68525;BME280;55524;51.380;13.372;2023-02-22T03:11:13;100615.84;;;7.52;100.00
68525;BME280;55524;51.380;13.372;2023-02-22T03:21:45;100614.19;;;7.48;100.00
68525;BME280;55524;51.380;13.372;2023-02-22T03:27:07;100605.50;;;7.44;100.00
68525;BME280;55524;51.380;13.372;2023-02-22T03:29:41;100610.75;;;7.44;100.00
68525;BME280;55524;51.380;13.372;2023-02-22T03:32:13;100612.50;;;7.45;100.00
68525;BME280;55524;51.380;13.372;2023-02-22T03:34:42;100605.47;;;7.46;100.00
68525;BME280;55524;51.380;13.372;2023-02-22T03:37:20;100608.06;;;7.47;100.00
68525;BME280;55524;51.380;13.372;2023-02-22T03:39:51;100607.19;;;7.47;100.00
68525;BME280;55524;51.380;13.372;2023-02-22T03:42:46;100611.59;;;7.46;100.00
68525;BME280;55524;51.380;13.372;2023-02-22T03:45:16;100606.38;;;7.45;100.00
68525;BME280;55524;51.380;13.372;2023-02-22T03:47:47;100606.41;;;7.43;100.00
68525;BME280;55524;51.380;13.372;2023-02-22T03:50:24;100613.53;;;7.38;100.00
68525;BME280;55524;51.380;13.372;2023-02-22T03:52:52;100608.31;;;7.35;100.00
68525;BME280;55524;51.380;13.372;2023-02-22T03:55:18;100604.09;;;7.28;100.00
68525;BME280;55524;51.380;13.372;2023-02-22T03:57:52;100617.38;;;7.22;100.00
68525;BME280;55524;51.380;13.372;2023-02-22T04:00:24;100604.28;;;7.19;100.00
68525;BME280;55524;51.380;13.372;2023-02-22T04:02:50;100613.28;;;7.07;100.00
68525;BME280;55524;51.380;13.372;2023-02-22T04:05:17;100604.50;;;7.08;100.00
68525;BME280;55524;51.380;13.372;2023-02-22T04:07:43;100606.31;;;7.06;100.00
68525;BME280;55524;51.380;13.372;2023-02-22T04:10:11;100610.75;;;7.02;100.00
68525;BME280;55524;51.380;13.372;2023-02-22T04:12:38;100613.44;;;6.99;100.00
68525;BME280;55524;51.380;13.372;2023-02-22T04:15:06;100605.63;;;6.96;100.00
68525;BME280;55524;51.380;13.372;2023-02-22T04:17:33;100606.47;;;6.97;100.00
68525;BME280;55524;51.380;13.372;2023-02-22T04:19:59;100605.72;;;6.93;100.00
68525;BME280;55524;51.380;13.372;2023-02-22T04:22:26;100607.47;;;6.91;100.00
68525;BME280;55524;51.380;13.372;2023-02-22T04:24:52;100599.59;;;6.91;100.00
68525;BME280;55524;51.380;13.372;2023-02-22T04:27:18;100602.28;;;6.89;100.00
68525;BME280;55524;51.380;13.372;2023-02-22T04:29:44;100605.72;;;6.92;100.00
68525;BME280;55524;51.380;13.372;2023-02-22T04:32:11;100599.66;;;6.89;100.00
68525;BME280;55524;51.380;13.372;2023-02-22T04:34:37;100597.88;;;6.90;100.00
68525;BME280;55524;51.380;13.372;2023-02-22T04:37:03;100596.16;;;6.87;100.00
68525;BME280;55524;51.380;13.372;2023-02-22T04:39:30;100596.22;;;6.86;100.00
68525;BME280;55524;51.380;13.372;2023-02-22T04:41:56;100596.16;;;6.89;100.00
68525;BME280;55524;51.380;13.372;2023-02-22T04:44:22;100599.69;;;6.86;100.00
68525;BME280;55524;51.380;13.372;2023-02-22T04:46:48;100600.59;;;6.84;100.00
68525;BME280;55524;51.380;13.372;2023-02-22T04:49:15;100593.59;;;6.86;100.00
68525;BME280;55524;51.380;13.372;2023-02-22T04:51:41;100593.75;;;6.77;100.00
68525;BME280;55524;51.380;13.372;2023-02-22T04:54:07;100594.59;;;6.79;100.00
68525;BME280;55524;51.380;13.372;2023-02-22T04:56:34;100597.25;;;6.77;100.00
68525;BME280;55524;51.380;13.372;2023-02-22T04:59:00;100593.69;;;6.80;100.00
68525;BME280;55524;51.380;13.372;2023-02-22T05:01:31;100594.53;;;6.80;100.00
68525;BME280;55524;51.380;13.372;2023-02-22T05:03:58;100597.13;;;6.83;100.00
68525;BME280;55524;51.380;13.372;2023-02-22T05:06:26;100592.72;;;6.84;100.00
68525;BME280;55524;51.380;13.372;2023-02-22T05:08:52;100597.13;;;6.83;100.00
68525;BME280;55524;51.380;13.372;2023-02-22T05:11:18;100595.34;;;6.84;100.00
68525;BME280;55524;51.380;13.372;2023-02-22T05:13:45;100596.22;;;6.84;100.00
68525;BME280;55524;51.380;13.372;2023-02-22T05:16:11;100599.72;;;6.85;100.00
68525;BME280;55524;51.380;13.372;2023-02-22T05:18:38;100596.22;;;6.84;100.00
68525;BME280;55524;51.380;13.372;2023-02-22T05:21:04;100595.59;;;6.73;100.00
68525;BME280;55524;51.380;13.372;2023-02-22T05:23:32;100592.16;;;6.70;100.00
68525;BME280;55524;51.380;13.372;2023-02-22T05:25:59;100586.81;;;6.73;100.00
68525;BME280;55524;51.380;13.372;2023-02-22T05:28:26;100592.97;;;6.73;100.00
68525;BME280;55524;51.380;13.372;2023-02-22T05:30:52;100589.44;;;6.74;100.00
68525;BME280;55524;51.380;13.372;2023-02-22T05:33:19;100588.50;;;6.77;100.00
68525;BME280;55524;51.380;13.372;2023-02-22T05:35:45;100593.72;;;6.78;100.00
68525;BME280;55524;51.380;13.372;2023-02-22T05:38:15;100596.41;;;6.75;100.00
68525;BME280;55524;51.380;13.372;2023-02-22T05:40:42;100593.75;;;6.77;100.00
68525;BME280;55524;51.380;13.372;2023-02-22T05:43:09;100589.38;;;6.77;100.00
68525;BME280;55524;51.380;13.372;2023-02-22T05:45:35;100583.22;;;6.77;100.00
68525;BME280;55524;51.380;13.372;2023-02-22T05:48:01;100593.81;;;6.74;100.00
68525;BME280;55524;51.380;13.372;2023-02-22T05:50:28;100595.53;;;6.75;100.00
68525;BME280;55524;51.380;13.372;2023-02-22T05:52:54;100591.19;;;6.74;100.00
68525;BME280;55524;51.380;13.372;2023-02-22T05:55:22;100604.28;;;6.75;100.00
68525;BME280;55524;51.380;13.372;2023-02-22T05:57:48;100595.53;;;6.75;100.00
68525;BME280;55524;51.380;13.372;2023-02-22T06:00:27;100592.91;;;6.75;100.00
68525;BME280;55524;51.380;13.372;2023-02-22T06:03:04;100594.59;;;6.79;100.00
68525;BME280;55524;51.380;13.372;2023-02-22T06:05:31;100599.00;;;6.77;100.00
68525;BME280;55524;51.380;13.372;2023-02-22T06:07:58;100592.88;;;6.78;100.00
68525;BME280;55524;51.380;13.372;2023-02-22T06:10:25;100596.34;;;6.78;100.00
68525;BME280;55524;51.380;13.372;2023-02-22T06:12:52;100593.75;;;6.77;100.00
68525;BME280;55524;51.380;13.372;2023-02-22T06:15:19;100590.25;;;6.78;100.00
68525;BME280;55524;51.380;13.372;2023-02-22T06:17:46;100597.22;;;6.79;100.00
68525;BME280;55524;51.380;13.372;2023-02-22T06:20:15;100594.63;;;6.77;100.00
68525;BME280;55524;51.380;13.372;2023-02-22T06:22:42;100599.88;;;6.77;100.00
68525;BME280;55524;51.380;13.372;2023-02-22T06:25:13;100599.88;;;6.77;100.00
68525;BME280;55524;51.380;13.372;2023-02-22T06:27:40;100602.53;;;6.76;100.00
68525;BME280;55524;51.380;13.372;2023-02-22T06:30:08;100599.84;;;6.79;100.00
68525;BME280;55524;51.380;13.372;2023-02-22T06:32:35;100608.53;;;6.81;100.00
68525;BME280;55524;51.380;13.372;2023-02-22T06:35:01;100611.13;;;6.84;100.00
68525;BME280;55524;51.380;13.372;2023-02-22T06:37:27;100611.97;;;6.84;100.00
68525;BME280;55524;51.380;13.372;2023-02-22T06:39:54;100610.16;;;6.88;100.00
68525;BME280;55524;51.380;13.372;2023-02-22T06:42:20;100606.81;;;6.81;100.00
68525;BME280;55524;51.380;13.372;2023-02-22T06:44:46;100614.66;;;6.83;100.00
68525;BME280;55524;51.380;13.372;2023-02-22T06:47:13;100613.69;;;6.87;100.00
68525;BME280;55524;51.380;13.372;2023-02-22T06:49:39;100610.16;;;6.89;100.00
68525;BME280;55524;51.380;13.372;2023-02-22T06:52:06;100618.84;;;6.92;100.00
68525;BME280;55524;51.380;13.372;2023-02-22T06:54:33;100616.22;;;6.93;100.00
68525;BME280;55524;51.380;13.372;2023-02-22T06:56:59;100619.72;;;6.92;100.00
68525;BME280;55524;51.380;13.372;2023-02-22T06:59:26;100620.63;;;6.91;100.00
68525;BME280;55524;51.380;13.372;2023-02-22T07:01:53;100621.47;;;6.92;100.00
68525;BME280;55524;51.380;13.372;2023-02-22T07:04:19;100627.59;;;6.94;100.00
68525;BME280;55524;51.380;13.372;2023-02-22T07:06:47;100630.13;;;6.98;100.00
68525;BME280;55524;51.380;13.372;2023-02-22T07:09:14;100629.41;;;6.88;100.00
68525;BME280;55524;51.380;13.372;2023-02-22T07:11:41;100632.03;;;6.90;100.00
68525;BME280;55524;51.380;13.372;2023-02-22T07:14:08;100629.41;;;6.88;100.00
68525;BME280;55524;51.380;13.372;2023-02-22T07:16:35;100630.22;;;6.92;100.00
68525;BME280;55524;51.380;13.372;2023-02-22T07:19:01;100631.13;;;6.91;100.00
68525;BME280;55524;51.380;13.372;2023-02-22T07:21:28;100637.28;;;6.90;100.00
68525;BME280;55524;51.380;13.372;2023-02-22T07:23:56;100636.34;;;6.93;100.00
68525;BME280;55524;51.380;13.372;2023-02-22T07:26:24;100638.09;;;6.94;100.00
68525;BME280;55524;51.380;13.372;2023-02-22T07:28:51;100638.91;;;6.97;100.00
68525;BME280;55524;51.380;13.372;2023-02-22T07:31:17;100639.72;;;6.99;100.00
68525;BME280;55524;51.380;13.372;2023-02-22T07:33:46;100642.28;;;7.02;100.00
68525;BME280;55524;51.380;13.372;2023-02-22T07:36:14;100641.41;;;7.03;100.00
68525;BME280;55524;51.380;13.372;2023-02-22T07:38:43;100641.41;;;7.03;100.00
68525;BME280;55524;51.380;13.372;2023-02-22T07:41:10;100643.09;;;7.06;100.00
68525;BME280;55524;51.380;13.372;2023-02-22T07:43:36;100641.34;;;7.06;100.00
68525;BME280;55524;51.380;13.372;2023-02-22T07:46:03;100635.16;;;7.09;100.00
68525;BME280;55524;51.380;13.372;2023-02-22T07:48:30;100639.47;;;7.13;100.00
68525;BME280;55524;51.380;13.372;2023-02-22T07:50:57;100637.81;;;7.07;100.00
68525;BME280;55524;51.380;13.372;2023-02-22T07:53:26;100636.34;;;6.93;100.00
68525;BME280;55524;51.380;13.372;2023-02-22T07:56:00;100633.56;;;7.02;100.00
68525;BME280;55524;51.380;13.372;2023-02-22T07:58:27;100641.44;;;7.00;100.00
68525;BME280;55524;51.380;13.372;2023-02-22T08:00:54;100636.19;;;7.00;100.00
68525;BME280;55524;51.380;13.372;2023-02-22T08:03:22;100635.38;;;6.98;100.00
68525;BME280;55524;51.380;13.372;2023-02-22T08:05:52;100639.47;;;7.13;100.00
68525;BME280;55524;51.380;13.372;2023-02-22T08:08:19;100633.22;;;7.19;100.00
68525;BME280;55524;51.380;13.372;2023-02-22T08:10:46;100635.63;;;7.29;100.00
68525;BME280;55524;51.380;13.372;2023-02-22T08:13:13;100636.44;;;7.33;100.00
68525;BME280;55524;51.380;13.372;2023-02-22T08:15:40;100635.31;;;7.43;100.00
68525;BME280;55524;51.380;13.372;2023-02-22T08:18:12;100632.63;;;7.46;100.00
68525;BME280;55524;51.380;13.372;2023-02-22T08:20:40;100629.09;;;7.49;100.00
68525;BME280;55524;51.380;13.372;2023-02-22T08:23:08;100630.47;;;7.23;100.00
68525;BME280;55524;51.380;13.372;2023-02-22T08:25:35;100630.38;;;7.29;100.00
68525;BME280;55524;51.380;13.372;2023-02-22T08:28:07;100622.69;;;7.59;100.00
68525;BME280;55524;51.380;13.372;2023-02-22T08:30:35;100620.75;;;7.69;100.00
68525;BME280;55524;51.380;13.372;2023-02-22T08:33:02;100626.81;;;7.71;100.00
68525;BME280;55524;51.380;13.372;2023-02-22T08:35:30;100626.75;;;7.74;100.00
68525;BME280;55524;51.380;13.372;2023-02-22T08:38:04;100625.75;;;7.79;100.00
68525;BME280;55524;51.380;13.372;2023-02-22T08:40:34;100620.97;;;7.95;100.00
68525;BME280;55524;51.380;13.372;2023-02-22T08:43:02;100626.06;;;8.04;100.00
68525;BME280;55524;51.380;13.372;2023-02-22T08:45:29;100629.19;;;8.19;100.00
68525;BME280;55524;51.380;13.372;2023-02-22T08:47:56;100632.44;;;8.30;100.00
68525;BME280;55524;51.380;13.372;2023-02-22T08:50:26;100620.31;;;8.23;100.00
68525;BME280;55524;51.380;13.372;2023-02-22T08:52:54;100624.84;;;8.18;100.00
68525;BME280;55524;51.380;13.372;2023-02-22T08:55:22;100627.66;;;8.10;100.00
68525;BME280;55524;51.380;13.372;2023-02-22T08:57:48;100634.28;;;8.26;100.00
68525;BME280;55524;51.380;13.372;2023-02-22T09:00:17;100628.22;;;8.23;100.00
68525;BME280;55524;51.380;13.372;2023-02-22T09:02:44;100627.69;;;8.46;100.00
68525;BME280;55524;51.380;13.372;2023-02-22T09:05:10;100623.16;;;8.51;100.00
68525;BME280;55524;51.380;13.372;2023-02-22T09:07:39;100624.69;;;8.59;100.00
68525;BME280;55524;51.380;13.372;2023-02-22T09:10:10;100629.84;;;8.64;100.00
68525;BME280;55524;51.380;13.372;2023-02-22T09:12:40;100624.59;;;8.62;100.00
68525;BME280;55524;51.380;13.372;2023-02-22T09:15:07;100625.22;;;8.72;100.00
68525;BME280;55524;51.380;13.372;2023-02-22T09:17:34;100622.75;;;8.66;100.00
68525;BME280;55524;51.380;13.372;2023-02-22T09:20:06;100618.06;;;8.77;100.00
68525;BME280;55524;51.380;13.372;2023-02-22T09:22:32;100616.06;;;8.87;100.00
68525;BME280;55524;51.380;13.372;2023-02-22T09:24:59;100614.06;;;8.95;100.00
68525;BME280;55524;51.380;13.372;2023-02-22T09:27:32;100612.16;;;9.00;100.00
68525;BME280;55524;51.380;13.372;2023-02-22T09:29:58;100611.88;;;9.09;100.00
68525;BME280;55524;51.380;13.372;2023-02-22T09:32:25;100605.19;;;9.29;100.00
68525;BME280;55524;51.380;13.372;2023-02-22T09:34:53;100604.00;;;9.39;100.00
68525;BME280;55524;51.380;13.372;2023-02-22T09:37:21;100608.91;;;9.51;100.00
68525;BME280;55524;51.380;13.372;2023-02-22T09:39:48;100612.19;;;9.59;100.00
68525;BME280;55524;51.380;13.372;2023-02-22T09:42:42;100601.09;;;9.76;100.00
68525;BME280;55524;51.380;13.372;2023-02-22T09:45:23;100594.47;;;9.91;100.00
68525;BME280;55524;51.380;13.372;2023-02-22T09:47:56;100600.22;;;9.76;100.00
68525;BME280;55524;51.380;13.372;2023-02-22T09:50:24;100598.34;;;9.51;100.00
68525;BME280;55524;51.380;13.372;2023-02-22T09:55:49;100593.84;;;9.55;100.00
68525;BME280;55524;51.380;13.372;2023-02-22T10:00:53;100591.75;;;9.66;100.00
68525;BME280;55524;51.380;13.372;2023-02-22T10:03:39;100580.03;;;9.75;100.00
68525;BME280;55524;51.380;13.372;2023-02-22T10:06:12;100583.06;;;9.89;100.00
68525;BME280;55524;51.380;13.372;2023-02-22T10:08:41;100583.44;;;9.50;100.00
68525;BME280;55524;51.380;13.372;2023-02-22T10:13:53;100585.13;;;10.07;100.00
68525;BME280;55524;51.380;13.372;2023-02-22T10:19:24;100582.63;;;10.31;100.00
68525;BME280;55524;51.380;13.372;2023-02-22T10:22:20;100577.00;;;10.40;100.00
68525;BME280;55524;51.380;13.372;2023-02-22T10:25:22;100578.03;;;10.36;100.00
68525;BME280;55524;51.380;13.372;2023-02-22T10:30:34;100579.44;;;10.46;100.00
68525;BME280;55524;51.380;13.372;2023-02-22T10:33:20;100573.31;;;10.46;99.87
68525;BME280;55524;51.380;13.372;2023-02-22T10:35:47;100570.81;;;10.41;99.52
68525;BME280;55524;51.380;13.372;2023-02-22T10:38:17;100569.91;;;10.42;98.85
68525;BME280;55524;51.380;13.372;2023-02-22T10:43:37;100569.78;;;10.70;97.17
68525;BME280;55524;51.380;13.372;2023-02-22T10:46:06;100570.69;;;10.44;97.75
68525;BME280;55524;51.380;13.372;2023-02-22T10:48:37;100567.00;;;10.50;98.01
68525;BME280;55524;51.380;13.372;2023-02-22T10:51:06;100561.81;;;10.72;97.08
68525;BME280;55524;51.380;13.372;2023-02-22T10:53:34;100566.03;;;10.77;95.99
68525;BME280;55524;51.380;13.372;2023-02-22T10:56:16;100563.59;;;10.71;97.36
68525;BME280;55524;51.380;13.372;2023-02-22T11:01:20;100554.00;;;10.92;94.80
68525;BME280;55524;51.380;13.372;2023-02-22T11:06:39;100545.09;;;11.18;93.94
68525;BME280;55524;51.380;13.372;2023-02-22T11:11:36;100548.72;;;10.92;95.95
68525;BME280;55524;51.380;13.372;2023-02-22T11:14:02;100542.66;;;10.89;93.51
68525;BME280;55524;51.380;13.372;2023-02-22T11:16:38;100543.84;;;11.28;96.17
68525;BME280;55524;51.380;13.372;2023-02-22T11:19:15;100539.16;;;10.65;93.84
68525;BME280;55524;51.380;13.372;2023-02-22T11:21:47;100530.75;;;10.77;93.42
68525;BME280;55524;51.380;13.372;2023-02-22T11:24:16;100530.91;;;10.74;93.58
68525;BME280;55524;51.380;13.372;2023-02-22T11:26:46;100526.75;;;11.14;92.83
68525;BME280;55524;51.380;13.372;2023-02-22T11:29:32;100527.06;;;10.82;92.21
68525;BME280;55524;51.380;13.372;2023-02-22T11:32:12;100527.44;;;11.19;91.78
68525;BME280;55524;51.380;13.372;2023-02-22T11:34:41;100513.69;;;11.32;89.19
68525;BME280;55524;51.380;13.372;2023-02-22T11:37:30;100513.31;;;11.42;88.03
68525;BME280;55524;51.380;13.372;2023-02-22T11:42:32;100504.47;;;10.97;87.65
68525;BME280;55524;51.380;13.372;2023-02-22T11:45:15;100512.81;;;11.08;88.11
68525;BME280;55524;51.380;13.372;2023-02-22T11:51:25;100503.91;;;11.35;85.69
68525;BME280;55524;51.380;13.372;2023-02-22T11:58:29;100505.25;;;10.99;86.42
68525;BME280;55524;51.380;13.372;2023-02-22T12:01:27;100503.38;;;11.03;87.76
68525;BME280;55524;51.380;13.372;2023-02-22T12:20:35;100473.63;;;11.42;83.39
68525;BME280;55524;51.380;13.372;2023-02-22T12:25:45;100471.25;;;11.78;83.17
68525;BME280;55524;51.380;13.372;2023-02-22T12:28:17;100473.03;;;11.77;83.22
68525;BME280;55524;51.380;13.372;2023-02-22T12:33:50;100467.53;;;11.18;83.64
68525;BME280;55524;51.380;13.372;2023-02-22T12:36:24;100471.66;;;11.25;84.54
68525;BME280;55524;51.380;13.372;2023-02-22T12:39:03;100472.69;;;11.43;85.29
68525;BME280;55524;51.380;13.372;2023-02-22T12:41:32;100461.50;;;11.78;84.30
68525;BME280;55524;51.380;13.372;2023-02-22T12:44:19;100469.81;;;11.91;83.31
68525;BME280;55524;51.380;13.372;2023-02-22T12:46:52;100463.75;;;12.10;83.14
68525;BME280;55524;51.380;13.372;2023-02-22T12:49:25;100450.50;;;12.10;82.18
68525;BME280;55524;51.380;13.372;2023-02-22T12:54:55;100468.50;;;12.22;83.98
68525;BME280;55524;51.380;13.372;2023-02-22T13:03:42;100471.63;;;11.69;87.90
68525;BME280;55524;51.380;13.372;2023-02-22T13:17:51;100450.44;;;11.91;84.00
68525;BME280;55524;51.380;13.372;2023-02-22T13:25:47;100458.69;;;11.83;84.61
68525;BME280;55524;51.380;13.372;2023-02-22T13:28:28;100454.81;;;11.70;83.91
68525;BME280;55524;51.380;13.372;2023-02-22T13:31:03;100449.78;;;11.86;83.38
68525;BME280;55524;51.380;13.372;2023-02-22T13:39:20;100445.00;;;11.72;85.16
68525;BME280;55524;51.380;13.372;2023-02-22T13:45:27;100455.38;;;11.56;87.36
68525;BME280;55524;51.380;13.372;2023-02-22T13:54:00;100449.53;;;11.70;86.28
68525;BME280;55524;51.380;13.372;2023-02-22T13:56:30;100444.88;;;11.75;86.25
68525;BME280;55524;51.380;13.372;2023-02-22T13:58:59;100446.75;;;11.73;86.08
68525;BME280;55524;51.380;13.372;2023-02-22T14:01:47;100442.81;;;11.83;86.94
68525;BME280;55524;51.380;13.372;2023-02-22T14:04:31;100442.31;;;11.73;86.55
68525;BME280;55524;51.380;13.372;2023-02-22T14:07:00;100441.59;;;11.70;86.84
68525;BME280;55524;51.380;13.372;2023-02-22T14:17:58;100438.16;;;11.46;88.68
68525;BME280;55524;51.380;13.372;2023-02-22T14:20:36;100435.66;;;11.43;89.20
68525;BME280;55524;51.380;13.372;2023-02-22T14:23:32;100441.75;;;11.45;90.04
68525;BME280;55524;51.380;13.372;2023-02-22T14:31:30;100434.13;;;11.15;90.55
68525;BME280;55524;51.380;13.372;2023-02-22T14:37:00;100431.69;;;10.87;91.09
68525;BME280;55524;51.380;13.372;2023-02-22T14:39:43;100429.38;;;11.01;89.86
68525;BME280;55524;51.380;13.372;2023-02-22T14:42:18;100422.91;;;10.87;89.96
68525;BME280;55524;51.380;13.372;2023-02-22T14:47:35;100426.00;;;10.98;90.75
68525;BME280;55524;51.380;13.372;2023-02-22T14:50:19;100422.97;;;11.07;90.46
68525;BME280;55524;51.380;13.372;2023-02-22T14:55:58;100419.84;;;10.97;89.89
68525;BME280;55524;51.380;13.372;2023-02-22T15:01:37;100419.19;;;10.69;90.57
68525;BME280;55524;51.380;13.372;2023-02-22T15:06:43;100428.56;;;10.54;90.49
68525;BME280;55524;51.380;13.372;2023-02-22T15:09:22;100422.66;;;10.47;91.80
68525;BME280;55524;51.380;13.372;2023-02-22T15:14:32;100423.00;;;10.38;92.33
68525;BME280;55524;51.380;13.372;2023-02-22T15:17:16;100422.06;;;10.39;91.41
68525;BME280;55524;51.380;13.372;2023-02-22T15:19:46;100420.88;;;10.23;92.37
68525;BME280;55524;51.380;13.372;2023-02-22T15:22:22;100413.88;;;10.22;92.49
68525;BME280;55524;51.380;13.372;2023-02-22T15:25:06;100413.81;;;10.23;92.72
68525;BME280;55524;51.380;13.372;2023-02-22T15:27:34;100408.91;;;10.13;92.95
68525;BME280;55524;51.380;13.372;2023-02-22T15:30:20;100407.88;;;10.17;94.03
68525;BME280;55524;51.380;13.372;2023-02-22T15:32:47;100409.84;;;10.12;93.81
68525;BME280;55524;51.380;13.372;2023-02-22T15:35:20;100405.09;;;9.96;95.04
68525;BME280;55524;51.380;13.372;2023-02-22T15:38:00;100407.38;;;10.07;95.80
68525;BME280;55524;51.380;13.372;2023-02-22T15:40:28;100408.56;;;9.98;96.68